sensor_id;sensor_type;location;lat;lon;timestamp;pressure;altitude;pressure_sealevel;temperature;humidity
66945;BME280;53853;51.982;5.928;2022-08-01T00:00:36;101525.72;;;20.51;76.21
66945;BME280;53853;51.982;5.928;2022-08-01T00:03:09;101519.69;;;20.49;76.30
66945;BME280;53853;51.982;5.928;2022-08-01T00:05:38;101524.25;;;20.49;76.03
66945;BME280;53853;51.982;5.928;2022-08-01T00:08:10;101518.81;;;20.49;76.28
66945;BME280;53853;51.982;5.928;2022-08-01T00:10:40;101521.72;;;20.47;76.08
66945;BME280;53853;51.982;5.928;2022-08-01T00:13:09;101527.34;;;20.45;76.43
66945;BME280;53853;51.982;5.928;2022-08-01T00:15:39;101521.50;;;20.42;76.34
66945;BME280;53853;51.982;5.928;2022-08-01T00:18:12;101522.53;;;20.41;76.55
66945;BME280;53853;51.982;5.928;2022-08-01T00:20:42;101514.41;;;20.41;76.50
66945;BME280;53853;51.982;5.928;2022-08-01T00:23:11;101527.94;;;20.41;76.39
66945;BME280;53853;51.982;5.928;2022-08-01T00:25:41;101523.38;;;20.41;76.31
66945;BME280;53853;51.982;5.928;2022-08-01T00:28:11;101524.41;;;20.40;76.36
66945;BME280;53853;51.982;5.928;2022-08-01T00:30:41;101527.94;;;20.41;76.47
66945;BME280;53853;51.982;5.928;2022-08-01T00:33:13;101529.63;;;20.42;76.09
66945;BME280;53853;51.982;5.928;2022-08-01T00:35:43;101529.63;;;20.42;76.04
66945;BME280;53853;51.982;5.928;2022-08-01T00:38:13;101535.84;;;20.42;76.21
66945;BME280;53853;51.982;5.928;2022-08-01T00:40:43;101521.28;;;20.43;76.01
66945;BME280;53853;51.982;5.928;2022-08-01T00:43:13;101525.88;;;20.43;75.91
66945;BME280;53853;51.982;5.928;2022-08-01T00:45:43;101524.00;;;20.43;75.57
66945;BME280;53853;51.982;5.928;2022-08-01T00:48:15;101528.59;;;20.43;75.56
66945;BME280;53853;51.982;5.928;2022-08-01T00:50:45;101526.72;;;20.43;75.36
66945;BME280;53853;51.982;5.928;2022-08-01T00:53:15;101527.09;;;20.40;75.71
66945;BME280;53853;51.982;5.928;2022-08-01T00:55:46;101526.69;;;20.37;75.68
66945;BME280;53853;51.982;5.928;2022-08-01T00:58:16;101520.41;;;20.36;75.93
66945;BME280;53853;51.982;5.928;2022-08-01T01:00:46;101520.59;;;20.35;75.77
66945;BME280;53853;51.982;5.928;2022-08-01T01:03:19;101517.91;;;20.35;75.92
66945;BME280;53853;51.982;5.928;2022-08-01T01:06:05;101533.31;;;20.34;75.74
66945;BME280;53853;51.982;5.928;2022-08-01T01:08:41;101523.50;;;20.33;75.78
66945;BME280;53853;51.982;5.928;2022-08-01T01:11:14;101519.16;;;20.32;75.96
66945;BME280;53853;51.982;5.928;2022-08-01T01:13:52;101516.44;;;20.32;75.83
66945;BME280;53853;51.982;5.928;2022-08-01T01:16:23;101526.41;;;20.32;75.77
66945;BME280;53853;51.982;5.928;2022-08-01T01:19:00;101520.78;;;20.33;75.78
66945;BME280;53853;51.982;5.928;2022-08-01T01:21:46;101531.81;;;20.32;75.92
66945;BME280;53853;51.982;5.928;2022-08-01T01:24:31;101532.28;;;20.35;75.83
66945;BME280;53853;51.982;5.928;2022-08-01T01:27:10;101529.59;;;20.35;75.47
66945;BME280;53853;51.982;5.928;2022-08-01T01:29:52;101530.41;;;20.36;75.65
66945;BME280;53853;51.982;5.928;2022-08-01T01:32:27;101525.81;;;20.36;75.40
66945;BME280;53853;51.982;5.928;2022-08-01T01:35:02;101531.22;;;20.36;75.60
66945;BME280;53853;51.982;5.928;2022-08-01T01:37:35;101539.34;;;20.36;75.47
66945;BME280;53853;51.982;5.928;2022-08-01T01:40:09;101538.53;;;20.36;75.18
66945;BME280;53853;51.982;5.928;2022-08-01T01:42:42;101532.28;;;20.35;75.47
66945;BME280;53853;51.982;5.928;2022-08-01T01:45:15;101533.50;;;20.33;75.48
66945;BME280;53853;51.982;5.928;2022-08-01T01:47:46;101537.03;;;20.33;75.49
66945;BME280;53853;51.982;5.928;2022-08-01T01:50:19;101537.03;;;20.33;75.49
66945;BME280;53853;51.982;5.928;2022-08-01T01:52:50;101534.34;;;20.33;75.24
66945;BME280;53853;51.982;5.928;2022-08-01T01:55:22;101538.91;;;20.33;75.46
66945;BME280;53853;51.982;5.928;2022-08-01T01:57:54;101537.03;;;20.33;75.31
66945;BME280;53853;51.982;5.928;2022-08-01T02:00:30;101531.44;;;20.35;75.26
66945;BME280;53853;51.982;5.928;2022-08-01T02:03:01;101530.59;;;20.34;75.49
66945;BME280;53853;51.982;5.928;2022-08-01T02:05:32;101539.56;;;20.35;75.58
66945;BME280;53853;51.982;5.928;2022-08-01T02:08:04;101533.69;;;20.31;75.73
66945;BME280;53853;51.982;5.928;2022-08-01T02:10:36;101535.59;;;20.31;75.74
66945;BME280;53853;51.982;5.928;2022-08-01T02:13:07;101538.50;;;20.29;75.66
66945;BME280;53853;51.982;5.928;2022-08-01T02:15:40;101539.94;;;20.32;75.86
66945;BME280;53853;51.982;5.928;2022-08-01T02:18:11;101541.81;;;20.31;75.90
66945;BME280;53853;51.982;5.928;2022-08-01T02:20:42;101538.28;;;20.31;75.98
66945;BME280;53853;51.982;5.928;2022-08-01T02:23:12;101544.94;;;20.28;75.96
66945;BME280;53853;51.982;5.928;2022-08-01T02:25:45;101542.22;;;20.28;75.92
66945;BME280;53853;51.982;5.928;2022-08-01T02:28:21;101543.00;;;20.22;76.40
66945;BME280;53853;51.982;5.928;2022-08-01T02:31:01;101539.06;;;20.24;76.23
66945;BME280;53853;51.982;5.928;2022-08-01T02:33:37;101532.63;;;20.25;76.29
66945;BME280;53853;51.982;5.928;2022-08-01T02:36:08;101532.63;;;20.25;76.29
66945;BME280;53853;51.982;5.928;2022-08-01T02:38:42;101533.66;;;20.24;76.40
66945;BME280;53853;51.982;5.928;2022-08-01T02:41:16;101539.47;;;20.21;76.80
66945;BME280;53853;51.982;5.928;2022-08-01T02:43:51;101538.19;;;20.17;77.23
66945;BME280;53853;51.982;5.928;2022-08-01T02:46:28;101530.63;;;20.13;76.94
66945;BME280;53853;51.982;5.928;2022-08-01T02:49:02;101539.19;;;20.09;77.08
66945;BME280;53853;51.982;5.928;2022-08-01T02:51:33;101548.31;;;20.08;77.12
66945;BME280;53853;51.982;5.928;2022-08-01T02:54:07;101545.19;;;20.05;77.69
66945;BME280;53853;51.982;5.928;2022-08-01T02:56:38;101544.91;;;20.00;78.07
66945;BME280;53853;51.982;5.928;2022-08-01T02:59:10;101540.94;;;19.96;78.08
66945;BME280;53853;51.982;5.928;2022-08-01T03:01:44;101543.41;;;19.90;78.23
66945;BME280;53853;51.982;5.928;2022-08-01T03:04:15;101543.78;;;19.87;78.39
66945;BME280;53853;51.982;5.928;2022-08-01T03:06:46;101535.00;;;19.85;78.13
66945;BME280;53853;51.982;5.928;2022-08-01T03:09:17;101542.09;;;19.86;78.53
66945;BME280;53853;51.982;5.928;2022-08-01T03:11:48;101535.00;;;19.85;78.88
66945;BME280;53853;51.982;5.928;2022-08-01T03:14:21;101531.66;;;19.83;79.15
66945;BME280;53853;51.982;5.928;2022-08-01T03:16:55;101528.13;;;19.83;79.11
66945;BME280;53853;51.982;5.928;2022-08-01T03:19:27;101542.47;;;19.83;79.24
66945;BME280;53853;51.982;5.928;2022-08-01T03:22:00;101547.25;;;19.81;79.07
66945;BME280;53853;51.982;5.928;2022-08-01T03:24:34;101543.88;;;19.79;79.16
66945;BME280;53853;51.982;5.928;2022-08-01T03:27:05;101551.53;;;19.76;79.42
66945;BME280;53853;51.982;5.928;2022-08-01T03:29:36;101541.56;;;19.76;79.23
66945;BME280;53853;51.982;5.928;2022-08-01T03:32:10;101532.16;;;19.72;79.19
66945;BME280;53853;51.982;5.928;2022-08-01T03:34:40;101531.13;;;19.73;78.98
66945;BME280;53853;51.982;5.928;2022-08-01T03:37:14;101542.34;;;19.70;79.01
66945;BME280;53853;51.982;5.928;2022-08-01T03:39:49;101539.81;;;19.68;79.00
66945;BME280;53853;51.982;5.928;2022-08-01T03:42:24;101541.28;;;19.71;78.68
66945;BME280;53853;51.982;5.928;2022-08-01T03:45:01;101528.63;;;19.71;78.85
66945;BME280;53853;51.982;5.928;2022-08-01T03:47:36;101540.66;;;19.69;79.15
66945;BME280;53853;51.982;5.928;2022-08-01T03:50:07;101537.31;;;19.67;78.93
66945;BME280;53853;51.982;5.928;2022-08-01T03:52:40;101543.94;;;19.64;78.73
66945;BME280;53853;51.982;5.928;2022-08-01T03:55:12;101540.59;;;19.62;78.75
66945;BME280;53853;51.982;5.928;2022-08-01T03:57:45;101539.94;;;19.60;78.96
66945;BME280;53853;51.982;5.928;2022-08-01T04:00:15;101547.22;;;19.60;78.73
66945;BME280;53853;51.982;5.928;2022-08-01T04:02:49;101542.81;;;19.59;78.99
66945;BME280;53853;51.982;5.928;2022-08-01T04:05:20;101549.91;;;19.60;78.56
66945;BME280;53853;51.982;5.928;2022-08-01T04:07:51;101551.41;;;19.62;78.84
66945;BME280;53853;51.982;5.928;2022-08-01T04:10:22;101550.56;;;19.62;78.99
66945;BME280;53853;51.982;5.928;2022-08-01T04:12:52;101550.56;;;19.62;78.80
66945;BME280;53853;51.982;5.928;2022-08-01T04:15:22;101548.91;;;19.61;78.96
66945;BME280;53853;51.982;5.928;2022-08-01T04:17:55;101547.03;;;19.61;78.65
66945;BME280;53853;51.982;5.928;2022-08-01T04:20:25;101551.78;;;19.59;78.80
66945;BME280;53853;51.982;5.928;2022-08-01T04:22:55;101548.03;;;19.60;78.55
66945;BME280;53853;51.982;5.928;2022-08-01T04:25:28;101547.22;;;19.60;78.65
66945;BME280;53853;51.982;5.928;2022-08-01T04:28:00;101549.28;;;19.58;78.97
66945;BME280;53853;51.982;5.928;2022-08-01T04:30:35;101555.06;;;19.54;78.93
66945;BME280;53853;51.982;5.928;2022-08-01T04:33:08;101556.94;;;19.54;79.06
66945;BME280;53853;51.982;5.928;2022-08-01T04:35:41;101557.13;;;19.52;79.09
66945;BME280;53853;51.982;5.928;2022-08-01T04:38:15;101555.44;;;19.51;79.34
66945;BME280;53853;51.982;5.928;2022-08-01T04:40:49;101561.03;;;19.50;79.84
66945;BME280;53853;51.982;5.928;2022-08-01T04:43:20;101559.16;;;19.50;79.81
66945;BME280;53853;51.982;5.928;2022-08-01T04:45:51;101567.94;;;19.52;80.04
66945;BME280;53853;51.982;5.928;2022-08-01T04:48:24;101570.84;;;19.51;80.17
66945;BME280;53853;51.982;5.928;2022-08-01T04:50:54;101573.16;;;19.54;80.20
66945;BME280;53853;51.982;5.928;2022-08-01T04:53:24;101581.72;;;19.58;80.10
66945;BME280;53853;51.982;5.928;2022-08-01T04:55:54;101584.69;;;19.63;80.21
66945;BME280;53853;51.982;5.928;2022-08-01T04:58:25;101582.44;;;19.66;79.86
66945;BME280;53853;51.982;5.928;2022-08-01T05:00:54;101589.31;;;19.69;79.88
66945;BME280;53853;51.982;5.928;2022-08-01T05:03:27;101588.94;;;19.72;79.74
66945;BME280;53853;51.982;5.928;2022-08-01T05:05:57;101577.75;;;19.75;79.63
66945;BME280;53853;51.982;5.928;2022-08-01T05:08:26;101581.94;;;19.78;79.88
66945;BME280;53853;51.982;5.928;2022-08-01T05:10:56;101593.25;;;19.81;79.83
66945;BME280;53853;51.982;5.928;2022-08-01T05:13:27;101594.69;;;19.84;79.48
66945;BME280;53853;51.982;5.928;2022-08-01T05:15:57;101599.28;;;19.83;79.16
66945;BME280;53853;51.982;5.928;2022-08-01T05:18:32;101590.34;;;19.83;79.14
66945;BME280;53853;51.982;5.928;2022-08-01T05:21:02;101598.66;;;19.81;79.41
66945;BME280;53853;51.982;5.928;2022-08-01T05:23:33;101591.16;;;19.83;79.29
66945;BME280;53853;51.982;5.928;2022-08-01T05:26:03;101592.66;;;19.86;79.22
66945;BME280;53853;51.982;5.928;2022-08-01T05:28:33;101582.66;;;19.86;79.20
66945;BME280;53853;51.982;5.928;2022-08-01T05:31:03;101593.28;;;19.88;79.00
66945;BME280;53853;51.982;5.928;2022-08-01T05:33:35;101598.50;;;19.89;79.16
66945;BME280;53853;51.982;5.928;2022-08-01T05:36:05;101601.03;;;19.91;79.22
66945;BME280;53853;51.982;5.928;2022-08-01T05:38:35;101598.13;;;19.93;78.94
66945;BME280;53853;51.982;5.928;2022-08-01T05:41:05;101601.47;;;19.95;78.92
66945;BME280;53853;51.982;5.928;2022-08-01T05:43:35;101609.00;;;19.99;78.87
66945;BME280;53853;51.982;5.928;2022-08-01T05:46:05;101605.72;;;20.04;78.72
66945;BME280;53853;51.982;5.928;2022-08-01T05:48:37;101607.41;;;20.05;78.83
66945;BME280;53853;51.982;5.928;2022-08-01T05:51:07;101608.03;;;20.07;78.84
66945;BME280;53853;51.982;5.928;2022-08-01T05:53:37;101610.16;;;20.12;78.62
66945;BME280;53853;51.982;5.928;2022-08-01T05:56:07;101615.38;;;20.13;78.24
66945;BME280;53853;51.982;5.928;2022-08-01T05:58:37;101608.28;;;20.12;78.59
66945;BME280;53853;51.982;5.928;2022-08-01T06:01:07;101615.84;;;20.17;78.31
66945;BME280;53853;51.982;5.928;2022-08-01T06:03:39;101616.03;;;20.15;78.08
66945;BME280;53853;51.982;5.928;2022-08-01T06:06:09;101616.03;;;20.15;77.99
66945;BME280;53853;51.982;5.928;2022-08-01T06:08:40;101626.28;;;20.20;77.97
66945;BME280;53853;51.982;5.928;2022-08-01T06:11:10;101629.41;;;20.23;77.56
66945;BME280;53853;51.982;5.928;2022-08-01T06:13:40;101610.47;;;20.23;77.32
66945;BME280;53853;51.982;5.928;2022-08-01T06:16:10;101619.44;;;20.24;77.65
66945;BME280;53853;51.982;5.928;2022-08-01T06:18:42;101616.97;;;20.29;77.11
66945;BME280;53853;51.982;5.928;2022-08-01T06:21:13;101620.91;;;20.26;76.86
66945;BME280;53853;51.982;5.928;2022-08-01T06:23:43;101621.56;;;20.29;76.67
66945;BME280;53853;51.982;5.928;2022-08-01T06:26:13;101628.63;;;20.30;76.09
66945;BME280;53853;51.982;5.928;2022-08-01T06:28:43;101633.56;;;20.19;75.41
66945;BME280;53853;51.982;5.928;2022-08-01T06:31:13;101630.31;;;20.09;75.70
66945;BME280;53853;51.982;5.928;2022-08-01T06:33:45;101637.38;;;20.03;76.57
66945;BME280;53853;51.982;5.928;2022-08-01T06:36:15;101638.00;;;20.05;76.45
66945;BME280;53853;51.982;5.928;2022-08-01T06:38:45;101638.06;;;20.12;76.60
66945;BME280;53853;51.982;5.928;2022-08-01T06:41:15;101639.34;;;20.16;75.60
66945;BME280;53853;51.982;5.928;2022-08-01T06:43:44;101637.91;;;20.20;75.79
66945;BME280;53853;51.982;5.928;2022-08-01T06:46:14;101644.88;;;20.30;75.53
66945;BME280;53853;51.982;5.928;2022-08-01T06:48:47;101643.84;;;20.31;75.02
66945;BME280;53853;51.982;5.928;2022-08-01T06:51:16;101648.88;;;20.34;74.92
66945;BME280;53853;51.982;5.928;2022-08-01T06:53:47;101650.34;;;20.36;74.83
66945;BME280;53853;51.982;5.928;2022-08-01T06:56:17;101651.25;;;20.43;74.67
66945;BME280;53853;51.982;5.928;2022-08-01T06:58:49;101648.78;;;20.49;74.38
66945;BME280;53853;51.982;5.928;2022-08-01T07:01:19;101644.91;;;20.58;74.12
66945;BME280;53853;51.982;5.928;2022-08-01T07:03:52;101649.09;;;20.60;74.30
66945;BME280;53853;51.982;5.928;2022-08-01T07:06:22;101650.56;;;20.63;74.56
66945;BME280;53853;51.982;5.928;2022-08-01T07:08:53;101646.00;;;20.63;73.42
66945;BME280;53853;51.982;5.928;2022-08-01T07:11:24;101642.31;;;20.71;73.87
66945;BME280;53853;51.982;5.928;2022-08-01T07:13:54;101647.72;;;20.71;73.92
66945;BME280;53853;51.982;5.928;2022-08-01T07:16:24;101646.50;;;20.74;73.90
66945;BME280;53853;51.982;5.928;2022-08-01T07:18:56;101651.97;;;20.80;73.96
66945;BME280;53853;51.982;5.928;2022-08-01T07:21:26;101655.78;;;20.86;73.63
66945;BME280;53853;51.982;5.928;2022-08-01T07:23:56;101653.53;;;20.96;73.58
66945;BME280;53853;51.982;5.928;2022-08-01T07:26:26;101654.81;;;21.01;73.80
66945;BME280;53853;51.982;5.928;2022-08-01T07:28:56;101662.34;;;21.05;72.98
66945;BME280;53853;51.982;5.928;2022-08-01T07:31:26;101661.75;;;21.10;72.77
66945;BME280;53853;51.982;5.928;2022-08-01T07:33:58;101669.88;;;21.10;72.57
66945;BME280;53853;51.982;5.928;2022-08-01T07:36:28;101672.59;;;21.10;72.63
66945;BME280;53853;51.982;5.928;2022-08-01T07:38:58;101679.47;;;21.12;73.01
66945;BME280;53853;51.982;5.928;2022-08-01T07:41:27;101676.56;;;21.14;72.74
66945;BME280;53853;51.982;5.928;2022-08-01T07:43:58;101681.59;;;21.17;72.24
66945;BME280;53853;51.982;5.928;2022-08-01T07:46:28;101677.22;;;21.16;70.76
66945;BME280;53853;51.982;5.928;2022-08-01T07:49:00;101684.97;;;21.19;70.20
66945;BME280;53853;51.982;5.928;2022-08-01T07:51:30;101687.66;;;21.19;70.57
66945;BME280;53853;51.982;5.928;2022-08-01T07:54:00;101692.25;;;21.25;71.23
66945;BME280;53853;51.982;5.928;2022-08-01T07:56:30;101686.25;;;21.30;71.52
66945;BME280;53853;51.982;5.928;2022-08-01T07:58:59;101689.00;;;21.37;71.63
66945;BME280;53853;51.982;5.928;2022-08-01T08:01:29;101691.94;;;21.42;71.49
66945;BME280;53853;51.982;5.928;2022-08-01T08:04:02;101696.75;;;21.40;71.88
66945;BME280;53853;51.982;5.928;2022-08-01T08:06:32;101698.19;;;21.42;71.73
66945;BME280;53853;51.982;5.928;2022-08-01T08:09:01;101693.63;;;21.43;69.95
66945;BME280;53853;51.982;5.928;2022-08-01T08:11:31;101700.50;;;21.39;70.58
66945;BME280;53853;51.982;5.928;2022-08-01T08:14:01;101704.88;;;21.40;70.53
66945;BME280;53853;51.982;5.928;2022-08-01T08:16:31;101707.78;;;21.38;70.83
66945;BME280;53853;51.982;5.928;2022-08-01T08:19:04;101700.72;;;21.44;70.65
66945;BME280;53853;51.982;5.928;2022-08-01T08:21:34;101700.97;;;21.49;70.68
66945;BME280;53853;51.982;5.928;2022-08-01T08:24:04;101705.38;;;21.50;70.79
66945;BME280;53853;51.982;5.928;2022-08-01T08:26:52;101710.41;;;21.53;71.11
66945;BME280;53853;51.982;5.928;2022-08-01T08:29:23;101716.25;;;21.57;70.88
66945;BME280;53853;51.982;5.928;2022-08-01T08:31:54;101711.47;;;21.59;71.00
66945;BME280;53853;51.982;5.928;2022-08-01T08:34:28;101715.00;;;21.59;71.12
66945;BME280;53853;51.982;5.928;2022-08-01T08:36:57;101714.00;;;21.60;71.16
66945;BME280;53853;51.982;5.928;2022-08-01T08:39:28;101714.63;;;21.62;70.92
66945;BME280;53853;51.982;5.928;2022-08-01T08:42:00;101713.34;;;21.65;70.98
66945;BME280;53853;51.982;5.928;2022-08-01T08:44:30;101711.28;;;21.67;70.88
66945;BME280;53853;51.982;5.928;2022-08-01T08:47:02;101714.66;;;21.76;70.36
66945;BME280;53853;51.982;5.928;2022-08-01T08:49:36;101714.25;;;21.79;69.69
66945;BME280;53853;51.982;5.928;2022-08-01T08:52:07;101722.19;;;21.87;69.81
66945;BME280;53853;51.982;5.928;2022-08-01T08:54:38;101722.44;;;21.92;68.94
66945;BME280;53853;51.982;5.928;2022-08-01T08:57:12;101732.25;;;21.93;68.57
66945;BME280;53853;51.982;5.928;2022-08-01T08:59:44;101730.19;;;21.95;68.84
66945;BME280;53853;51.982;5.928;2022-08-01T09:02:14;101730.59;;;21.92;68.96
66945;BME280;53853;51.982;5.928;2022-08-01T09:04:47;101732.66;;;21.90;69.32
66945;BME280;53853;51.982;5.928;2022-08-01T09:07:18;101738.06;;;21.83;69.33
66945;BME280;53853;51.982;5.928;2022-08-01T09:09:49;101737.84;;;21.78;69.19
66945;BME280;53853;51.982;5.928;2022-08-01T09:12:19;101740.53;;;21.71;68.91
66945;BME280;53853;51.982;5.928;2022-08-01T09:14:49;101738.19;;;21.62;68.71
66945;BME280;53853;51.982;5.928;2022-08-01T09:17:20;101753.16;;;21.51;68.30
66945;BME280;53853;51.982;5.928;2022-08-01T09:19:54;101753.91;;;21.38;68.75
66945;BME280;53853;51.982;5.928;2022-08-01T09:22:25;101748.97;;;21.20;69.29
66945;BME280;53853;51.982;5.928;2022-08-01T09:25:00;101750.53;;;21.08;71.08
66945;BME280;53853;51.982;5.928;2022-08-01T09:27:30;101758.00;;;20.99;71.70
66945;BME280;53853;51.982;5.928;2022-08-01T09:32:57;101758.28;;;20.83;72.83
66945;BME280;53853;51.982;5.928;2022-08-01T09:35:31;101759.50;;;20.80;73.41
66945;BME280;53853;51.982;5.928;2022-08-01T09:38:15;101760.47;;;20.72;73.59
66945;BME280;53853;51.982;5.928;2022-08-01T09:40:50;101767.53;;;20.67;73.79
66945;BME280;53853;51.982;5.928;2022-08-01T09:43:23;101772.63;;;20.61;74.30
66945;BME280;53853;51.982;5.928;2022-08-01T09:45:54;101772.75;;;20.53;74.48
66945;BME280;53853;51.982;5.928;2022-08-01T09:48:24;101774.84;;;20.51;74.70
66945;BME280;53853;51.982;5.928;2022-08-01T09:50:58;101782.72;;;20.46;74.73
66945;BME280;53853;51.982;5.928;2022-08-01T09:53:40;101786.00;;;20.41;74.87
66945;BME280;53853;51.982;5.928;2022-08-01T09:56:12;101790.28;;;20.36;75.12
66945;BME280;53853;51.982;5.928;2022-08-01T09:58:56;101787.78;;;20.34;75.65
66945;BME280;53853;51.982;5.928;2022-08-01T10:01:26;101793.38;;;20.33;75.21
66945;BME280;53853;51.982;5.928;2022-08-01T10:04:08;101792.56;;;20.32;75.15
66945;BME280;53853;51.982;5.928;2022-08-01T10:06:42;101786.94;;;20.34;74.47
66945;BME280;53853;51.982;5.928;2022-08-01T10:09:14;101791.84;;;20.45;75.05
66945;BME280;53853;51.982;5.928;2022-08-01T10:11:44;101796.13;;;20.54;75.14
66945;BME280;53853;51.982;5.928;2022-08-01T10:14:14;101787.50;;;20.66;75.08
66945;BME280;53853;51.982;5.928;2022-08-01T10:16:46;101797.81;;;20.77;74.62
66945;BME280;53853;51.982;5.928;2022-08-01T10:19:17;101792.00;;;20.80;74.04
66945;BME280;53853;51.982;5.928;2022-08-01T10:21:51;101789.75;;;20.84;73.92
66945;BME280;53853;51.982;5.928;2022-08-01T10:24:21;101797.53;;;20.93;74.39
66945;BME280;53853;51.982;5.928;2022-08-01T10:26:55;101794.72;;;21.02;74.55
66945;BME280;53853;51.982;5.928;2022-08-01T10:29:26;101795.59;;;21.09;74.67
66945;BME280;53853;51.982;5.928;2022-08-01T10:31:56;101804.53;;;21.09;74.12
66945;BME280;53853;51.982;5.928;2022-08-01T10:34:28;101806.03;;;21.12;73.76
66945;BME280;53853;51.982;5.928;2022-08-01T10:37:01;101801.19;;;21.07;72.45
66945;BME280;53853;51.982;5.928;2022-08-01T10:39:32;101803.91;;;21.07;73.08
66945;BME280;53853;51.982;5.928;2022-08-01T10:42:03;101802.25;;;21.06;72.40
66945;BME280;53853;51.982;5.928;2022-08-01T10:44:34;101801.78;;;21.03;71.12
66945;BME280;53853;51.982;5.928;2022-08-01T10:47:08;101806.19;;;21.04;71.63
66945;BME280;53853;51.982;5.928;2022-08-01T10:49:43;101799.75;;;21.05;72.41
66945;BME280;53853;51.982;5.928;2022-08-01T10:52:18;101793.06;;;21.07;72.69
66945;BME280;53853;51.982;5.928;2022-08-01T10:54:48;101801.44;;;21.12;72.66
66945;BME280;53853;51.982;5.928;2022-08-01T10:57:18;101799.19;;;21.16;72.57
66945;BME280;53853;51.982;5.928;2022-08-01T10:59:50;101797.94;;;21.18;73.00
66945;BME280;53853;51.982;5.928;2022-08-01T11:02:27;101809.06;;;21.24;72.52
66945;BME280;53853;51.982;5.928;2022-08-01T11:05:02;101799.88;;;21.25;72.78
66945;BME280;53853;51.982;5.928;2022-08-01T11:07:43;101798.66;;;21.27;73.51
66945;BME280;53853;51.982;5.928;2022-08-01T11:10:22;101794.97;;;21.35;72.64
66945;BME280;53853;51.982;5.928;2022-08-01T11:12:53;101793.84;;;21.51;72.79
66945;BME280;53853;51.982;5.928;2022-08-01T11:15:24;101801.25;;;21.70;71.57
66945;BME280;53853;51.982;5.928;2022-08-01T11:17:56;101792.72;;;21.80;71.07
66945;BME280;53853;51.982;5.928;2022-08-01T11:20:30;101790.94;;;21.94;71.05
66945;BME280;53853;51.982;5.928;2022-08-01T11:23:26;101791.63;;;22.10;71.00
66945;BME280;53853;51.982;5.928;2022-08-01T11:26:11;101790.81;;;22.16;69.81
66945;BME280;53853;51.982;5.928;2022-08-01T11:28:43;101795.66;;;22.27;69.37
66945;BME280;53853;51.982;5.928;2022-08-01T11:31:30;101794.00;;;22.33;68.51
66945;BME280;53853;51.982;5.928;2022-08-01T11:34:01;101796.72;;;22.39;67.78
66945;BME280;53853;51.982;5.928;2022-08-01T11:36:31;101803.25;;;22.52;68.18
66945;BME280;53853;51.982;5.928;2022-08-01T11:39:18;101799.28;;;22.61;66.55
66945;BME280;53853;51.982;5.928;2022-08-01T11:41:49;101797.22;;;22.70;67.50
66945;BME280;53853;51.982;5.928;2022-08-01T11:44:22;101794.72;;;22.82;65.44
66945;BME280;53853;51.982;5.928;2022-08-01T11:46:59;101801.00;;;22.89;62.88
66945;BME280;53853;51.982;5.928;2022-08-01T11:49:32;101799.31;;;22.88;64.21
66945;BME280;53853;51.982;5.928;2022-08-01T11:52:05;101805.38;;;22.96;64.75
66945;BME280;53853;51.982;5.928;2022-08-01T11:54:43;101803.72;;;23.02;64.69
66945;BME280;53853;51.982;5.928;2022-08-01T11:57:15;101804.81;;;23.08;64.46
66945;BME280;53853;51.982;5.928;2022-08-01T11:59:48;101804.38;;;23.18;64.04
66945;BME280;53853;51.982;5.928;2022-08-01T12:02:20;101796.81;;;23.33;63.67
66945;BME280;53853;51.982;5.928;2022-08-01T12:04:56;101795.31;;;23.44;62.60
66945;BME280;53853;51.982;5.928;2022-08-01T12:07:30;101798.47;;;23.47;62.63
66945;BME280;53853;51.982;5.928;2022-08-01T12:10:05;101796.97;;;23.58;62.74
66945;BME280;53853;51.982;5.928;2022-08-01T12:12:37;101800.09;;;23.68;62.25
66945;BME280;53853;51.982;5.928;2022-08-01T12:15:10;101800.28;;;23.74;60.07
66945;BME280;53853;51.982;5.928;2022-08-01T12:17:41;101797.97;;;23.77;60.76
66945;BME280;53853;51.982;5.928;2022-08-01T12:20:14;101797.31;;;23.82;60.97
66945;BME280;53853;51.982;5.928;2022-08-01T12:22:44;101801.09;;;23.87;60.78
66945;BME280;53853;51.982;5.928;2022-08-01T12:25:17;101796.69;;;23.86;59.78
66945;BME280;53853;51.982;5.928;2022-08-01T12:27:48;101793.56;;;23.90;58.41
66945;BME280;53853;51.982;5.928;2022-08-01T12:30:20;101799.63;;;23.92;58.74
66945;BME280;53853;51.982;5.928;2022-08-01T12:32:51;101807.59;;;23.86;56.32
66945;BME280;53853;51.982;5.928;2022-08-01T12:35:24;101806.13;;;23.77;57.43
66945;BME280;53853;51.982;5.928;2022-08-01T12:37:56;101805.09;;;23.78;58.07
66945;BME280;53853;51.982;5.928;2022-08-01T12:40:31;101801.75;;;23.76;57.36
66945;BME280;53853;51.982;5.928;2022-08-01T12:43:03;101805.09;;;23.78;57.40
66945;BME280;53853;51.982;5.928;2022-08-01T12:45:35;101814.50;;;23.89;57.48
66945;BME280;53853;51.982;5.928;2022-08-01T12:48:08;101811.75;;;23.96;57.58
66945;BME280;53853;51.982;5.928;2022-08-01T12:50:40;101812.38;;;23.98;57.58
66945;BME280;53853;51.982;5.928;2022-08-01T12:53:11;101813.00;;;24.00;56.80
66945;BME280;53853;51.982;5.928;2022-08-01T12:55:48;101807.13;;;23.96;56.01
66945;BME280;53853;51.982;5.928;2022-08-01T12:58:19;101809.47;;;23.93;56.72
66945;BME280;53853;51.982;5.928;2022-08-01T13:00:51;101808.22;;;23.88;54.69
66945;BME280;53853;51.982;5.928;2022-08-01T13:03:31;101809.06;;;23.76;53.44
66945;BME280;53853;51.982;5.928;2022-08-01T13:06:07;101808.66;;;23.72;54.92
66945;BME280;53853;51.982;5.928;2022-08-01T13:08:41;101810.16;;;23.68;54.96
66945;BME280;53853;51.982;5.928;2022-08-01T13:11:14;101807.22;;;23.69;55.62
66945;BME280;53853;51.982;5.928;2022-08-01T13:13:47;101806.38;;;23.69;54.61
66945;BME280;53853;51.982;5.928;2022-08-01T13:16:20;101802.41;;;23.65;54.47
66945;BME280;53853;51.982;5.928;2022-08-01T13:18:52;101807.84;;;23.72;55.18